Time;durP1;ratioP1;P1;durP2;ratioP2;P2;SDS_P1;SDS_P2;PMS_P1;PMS_P2;Temp;Humidity;BMP_temperature;BMP_pressure;BME280_temperature;BME280_humidity;BME280_pressure;Samples;Min_cycle;Max_cycle;Signal;HPM_P1;HPM_P2
2022/08/04 00:02:02;;;;;;;0.10;0.00;;;20.40;99.90;;;;;;5021938;28;20507;-86
2022/08/04 00:04:46;;;;;;;0.10;0.00;;;20.50;99.90;;;;;;5021545;28;20975;-86
2022/08/04 00:07:25;;;;;;;0.10;0.00;;;20.40;99.90;;;;;;5021679;28;20541;-86
2022/08/04 00:09:58;;;;;;;0.10;0.10;;;20.40;99.90;;;;;;5019590;28;22831;-86
2022/08/04 00:12:27;;;;;;;0.10;0.00;;;20.50;99.90;;;;;;5028066;28;20493;-87
2022/08/04 00:14:57;;;;;;;0.10;0.00;;;20.60;99.90;;;;;;5011737;28;20489;-86
2022/08/04 00:17:29;;;;;;;0.10;0.00;;;20.50;99.90;;;;;;5002736;28;20477;-86
2022/08/04 00:20:02;;;;;;;0.10;0.00;;;20.40;99.90;;;;;;5017688;28;20478;-86
2022/08/04 00:22:29;;;;;;;0.10;0.00;;;20.30;99.90;;;;;;5015036;28;20448;-86
2022/08/04 00:24:56;;;;;;;0.10;0.10;;;20.60;99.90;;;;;;5012719;28;20928;-86
2022/08/04 00:27:22;;;;;;;0.10;0.00;;;20.70;99.90;;;;;;5016241;28;20533;-86
2022/08/04 00:29:47;;;;;;;0.10;0.00;;;20.80;99.90;;;;;;5014157;28;20447;-87
2022/08/04 00:32:16;;;;;;;0.10;0.00;;;20.80;99.90;;;;;;5014898;28;20927;-86
2022/08/04 00:34:42;;;;;;;0.10;0.00;;;20.90;99.90;;;;;;5014878;28;20188;-87
2022/08/04 00:37:09;;;;;;;0.10;0.10;;;20.90;99.90;;;;;;5011629;28;20474;-86
2022/08/04 00:39:35;;;;;;;0.10;0.00;;;20.90;99.90;;;;;;5019620;28;20443;-86
2022/08/04 00:42:34;;;;;;;0.10;0.00;;;20.70;99.90;;;;;;5000298;28;20542;-87
2022/08/04 00:45:36;;;;;;;0.10;0.10;;;20.50;99.90;;;;;;5015952;28;20886;-86
2022/08/04 00:48:31;;;;;;;0.10;0.10;;;20.80;99.90;;;;;;5016297;28;20455;-86
2022/08/04 00:51:03;;;;;;;0.10;0.00;;;20.80;99.90;;;;;;5014235;28;20453;-86
2022/08/04 00:53:52;;;;;;;0.10;0.00;;;20.70;99.90;;;;;;5014058;28;20528;-86
2022/08/04 00:56:29;;;;;;;0.10;0.10;;;20.80;99.90;;;;;;5015456;28;20980;-86
2022/08/04 00:59:19;;;;;;;0.10;0.10;;;20.80;99.90;;;;;;5013801;28;20947;-87
2022/08/04 01:01:52;;;;;;;0.10;0.00;;;20.80;99.90;;;;;;5012679;28;20455;-86
2022/08/04 01:04:29;;;;;;;0.10;0.00;;;20.70;99.90;;;;;;5021808;28;21016;-87
2022/08/04 01:07:24;;;;;;;0.10;0.10;;;20.70;99.90;;;;;;5014839;28;20475;-86
2022/08/04 01:10:16;;;;;;;0.10;0.00;;;20.50;99.90;;;;;;5015678;28;20528;-86
2022/08/04 01:12:54;;;;;;;0.10;0.10;;;20.50;99.90;;;;;;5007771;28;21047;-86
2022/08/04 01:15:38;;;;;;;0.10;0.00;;;20.30;99.90;;;;;;5022590;28;20443;-86
2022/08/04 01:18:06;;;;;;;0.10;0.00;;;20.10;99.90;;;;;;5007032;28;20485;-86
2022/08/04 01:20:40;;;;;;;0.10;0.10;;;20.10;99.90;;;;;;5016164;28;20496;-86
2022/08/04 01:23:46;;;;;;;0.10;0.00;;;20.10;99.90;;;;;;5001634;28;20457;-86
2022/08/04 01:26:36;;;;;;;0.10;0.10;;;20.00;99.90;;;;;;4971318;28;20472;-86
2022/08/04 01:29:13;;;;;;;0.10;0.00;;;20.10;99.90;;;;;;5012760;28;21039;-85
2022/08/04 01:32:00;;;;;;;0.10;0.10;;;20.00;99.90;;;;;;5013740;28;20439;-85
2022/08/04 01:34:35;;;;;;;0.10;0.00;;;19.90;99.90;;;;;;5031241;28;20426;-86
2022/08/04 01:37:22;;;;;;;0.10;0.07;;;19.70;99.90;;;;;;5016106;28;20466;-86
2022/08/04 01:40:03;;;;;;;0.10;0.10;;;19.70;99.90;;;;;;5021744;28;20478;-86
2022/08/04 01:42:31;;;;;;;0.10;0.10;;;19.60;99.90;;;;;;5015281;28;20525;-86
2022/08/04 01:44:59;;;;;;;0.10;0.10;;;19.50;99.90;;;;;;5003192;28;20818;-85
2022/08/04 01:47:28;;;;;;;0.10;0.10;;;19.60;99.90;;;;;;5004867;28;20446;-86
2022/08/04 01:49:58;;;;;;;0.10;0.00;;;19.40;99.90;;;;;;5001178;28;20530;-86
2022/08/04 01:52:26;;;;;;;0.10;0.00;;;19.40;99.90;;;;;;4991081;28;20550;-86
2022/08/04 01:54:52;;;;;;;0.10;0.00;;;19.40;99.90;;;;;;4991651;28;20459;-86
2022/08/04 01:57:18;;;;;;;0.10;0.00;;;19.30;99.90;;;;;;5013590;28;20490;-86
2022/08/04 01:59:46;;;;;;;0.10;0.10;;;19.40;99.90;;;;;;5012260;28;20314;-86
2022/08/04 02:02:11;;;;;;;0.10;0.00;;;19.40;99.90;;;;;;5008817;28;20210;-86
2022/08/04 02:04:37;;;;;;;0.10;0.00;;;19.50;99.90;;;;;;5014357;28;20442;-86
2022/08/04 02:07:11;;;;;;;0.10;0.00;;;19.60;99.90;;;;;;4999305;28;20575;-86
2022/08/04 02:09:45;;;;;;;0.10;0.10;;;19.40;99.90;;;;;;5013306;28;20675;-86
2022/08/04 02:12:49;;;;;;;0.10;0.10;;;19.30;99.90;;;;;;5018556;28;20446;-85
2022/08/04 02:15:27;;;;;;;0.10;0.00;;;19.20;99.90;;;;;;5018626;28;20450;-86
2022/08/04 02:18:11;;;;;;;0.10;0.10;;;19.10;99.90;;;;;;5012088;28;20474;-86
2022/08/04 02:20:44;;;;;;;0.10;0.10;;;19.10;99.90;;;;;;5013318;28;20528;-86
2022/08/04 02:23:18;;;;;;;0.10;0.10;;;19.10;99.90;;;;;;5033817;28;20437;-86
2022/08/04 02:25:59;;;;;;;0.10;0.10;;;19.20;99.90;;;;;;5010069;28;20963;-85
2022/08/04 02:28:39;;;;;;;0.10;0.10;;;19.30;99.90;;;;;;5020437;28;20533;-85
2022/08/04 02:31:25;;;;;;;0.10;0.10;;;19.30;99.90;;;;;;5009485;28;20439;-86
2022/08/04 02:34:06;;;;;;;0.10;0.10;;;19.30;99.90;;;;;;5026378;28;20786;-86
2022/08/04 02:36:38;;;;;;;0.10;0.10;;;19.60;99.90;;;;;;4998009;28;20555;-85
2022/08/04 02:39:05;;;;;;;0.10;0.10;;;19.60;99.90;;;;;;5010724;28;20530;-86
2022/08/04 02:41:32;;;;;;;0.10;0.00;;;19.70;99.90;;;;;;5020012;28;20481;-85
2022/08/04 02:44:04;;;;;;;0.10;0.10;;;19.70;99.90;;;;;;5007130;28;20934;-84
2022/08/04 02:46:32;;;;;;;0.10;0.10;;;19.50;99.90;;;;;;5017190;28;20458;-85
2022/08/04 02:49:00;;;;;;;0.10;0.10;;;19.30;99.90;;;;;;5017969;28;20835;-85
2022/08/04 02:51:32;;;;;;;0.10;0.10;;;19.20;99.90;;;;;;5011879;28;20450;-85
2022/08/04 02:53:58;;;;;;;0.10;0.10;;;19.20;99.90;;;;;;5007614;28;20454;-85
2022/08/04 02:56:27;;;;;;;0.10;0.10;;;19.20;99.90;;;;;;5008143;28;20442;-85
2022/08/04 02:59:13;;;;;;;0.10;0.10;;;19.20;99.90;;;;;;5018962;28;20480;-85
2022/08/04 03:01:40;;;;;;;0.10;0.10;;;19.20;99.90;;;;;;5005924;28;21005;-86
2022/08/04 03:04:37;;;;;;;0.10;0.10;;;19.20;99.90;;;;;;5022380;28;20845;-85
2022/08/04 03:07:31;;;;;;;0.10;0.10;;;19.20;99.90;;;;;;5011846;28;20483;-85
2022/08/04 03:10:49;;;;;;;0.10;0.10;;;19.10;99.90;;;;;;5013815;28;20442;-85
2022/08/04 03:13:20;;;;;;;0.10;0.10;;;19.20;99.90;;;;;;4966010;28;20466;-85
2022/08/04 03:16:10;;;;;;;0.10;0.10;;;19.20;99.90;;;;;;5025602;28;20444;-85
2022/08/04 03:19:10;;;;;;;0.10;0.10;;;19.20;99.90;;;;;;5016996;28;20498;-85
2022/08/04 03:21:53;;;;;;;0.10;0.10;;;19.10;99.90;;;;;;5022263;28;20437;-85
2022/08/04 03:24:35;;;;;;;0.10;0.07;;;19.00;99.90;;;;;;5029638;28;20921;-85
2022/08/04 03:27:06;;;;;;;0.10;0.10;;;19.00;99.90;;;;;;5015702;28;20549;-85
2022/08/04 03:29:43;;;;;;;0.10;0.10;;;19.10;99.90;;;;;;5014502;28;20462;-85
2022/08/04 03:32:39;;;;;;;0.10;0.00;;;19.00;99.90;;;;;;4996606;28;20455;-85
2022/08/04 03:35:35;;;;;;;0.10;0.10;;;19.10;99.90;;;;;;5023672;28;20938;-85
2022/08/04 03:38:16;;;;;;;0.10;0.10;;;19.00;99.90;;;;;;5028272;28;20537;-85
2022/08/04 03:41:10;;;;;;;0.10;0.10;;;19.00;99.90;;;;;;5008928;28;20973;-86
2022/08/04 03:44:15;;;;;;;0.10;0.10;;;19.10;99.90;;;;;;5012095;28;20434;-86
2022/08/04 03:47:04;;;;;;;0.10;0.10;;;19.40;99.90;;;;;;5000260;28;20473;-86
2022/08/04 03:50:00;;;;;;;0.10;0.00;;;19.20;99.90;;;;;;5005835;28;20460;-86
2022/08/04 03:56:00;;;;;;;0.10;0.10;;;19.20;99.90;;;;;;5019343;28;20452;-85
2022/08/04 03:58:45;;;;;;;0.10;0.10;;;19.30;99.90;;;;;;5003245;28;20529;-85
2022/08/04 04:01:35;;;;;;;0.10;0.10;;;19.40;99.90;;;;;;5011515;28;20956;-86
2022/08/04 04:04:23;;;;;;;0.10;0.10;;;19.30;99.90;;;;;;5015935;28;20930;-85
2022/08/04 04:07:16;;;;;;;0.10;0.10;;;19.30;99.90;;;;;;5005696;28;20525;-86
2022/08/04 04:10:09;;;;;;;0.10;0.10;;;19.40;99.90;;;;;;5024331;28;20454;-86
2022/08/04 04:12:59;;;;;;;0.10;0.10;;;19.50;99.90;;;;;;5022148;28;20453;-86
2022/08/04 04:15:30;;;;;;;0.10;0.10;;;19.60;99.90;;;;;;5012657;28;20443;-86
2022/08/04 04:18:15;;;;;;;0.10;0.00;;;19.70;99.90;;;;;;4999457;28;20482;-85
2022/08/04 04:21:06;;;;;;;0.10;0.10;;;19.80;99.90;;;;;;4994789;28;20447;-85
2022/08/04 04:24:02;;;;;;;0.10;0.10;;;19.90;99.90;;;;;;5021242;28;20497;-84
2022/08/04 04:26:28;;;;;;;0.10;0.10;;;20.00;99.90;;;;;;5015705;28;20435;-84
2022/08/04 04:29:18;;;;;;;0.10;0.00;;;20.00;99.90;;;;;;5001167;28;20441;-85
2022/08/04 04:32:33;;;;;;;0.10;0.10;;;20.10;99.90;;;;;;5008732;28;20241;-85
2022/08/04 04:35:29;;;;;;;0.10;0.10;;;20.20;99.90;;;;;;4928006;29;20474;-84
2022/08/04 04:38:20;;;;;;;0.10;0.10;;;20.30;99.90;;;;;;4936531;28;20544;-84
2022/08/04 04:40:51;;;;;;;0.10;0.00;;;20.30;99.90;;;;;;5003348;28;20879;-86
2022/08/04 04:43:28;;;;;;;0.10;0.10;;;20.40;99.90;;;;;;5007023;28;20453;-84
2022/08/04 04:46:28;;;;;;;0.10;0.10;;;20.30;99.90;;;;;;4999435;28;20440;-84
2022/08/04 04:49:04;;;;;;;0.10;0.10;;;20.30;99.90;;;;;;5011393;28;20476;-85
2022/08/04 04:51:47;;;;;;;0.10;0.10;;;20.40;99.90;;;;;;5016318;28;20435;-84
2022/08/04 04:54:32;;;;;;;0.10;0.10;;;20.50;99.90;;;;;;5021033;28;20976;-84
2022/08/04 04:57:12;;;;;;;0.10;0.10;;;20.70;99.90;;;;;;5014364;28;20489;-84
2022/08/04 04:59:45;;;;;;;0.10;0.10;;;20.70;99.90;;;;;;5010352;28;20437;-84
2022/08/04 05:02:42;;;;;;;0.10;0.00;;;20.70;99.90;;;;;;5020788;28;20442;-85
2022/08/04 05:05:20;;;;;;;0.10;0.07;;;20.70;99.90;;;;;;5017246;28;20451;-84
2022/08/04 05:08:11;;;;;;;0.10;0.10;;;20.80;99.90;;;;;;5017406;28;20475;-84
2022/08/04 05:11:06;;;;;;;0.10;0.00;;;20.90;99.90;;;;;;4990635;28;20753;-84
2022/08/04 05:13:44;;;;;;;0.10;0.10;;;21.00;99.90;;;;;;5011813;28;20455;-84
2022/08/04 05:16:18;;;;;;;0.10;0.00;;;21.10;99.90;;;;;;5005814;28;20446;-85
2022/08/04 05:18:48;;;;;;;0.10;0.10;;;21.10;99.90;;;;;;5009383;28;20548;-83
2022/08/04 05:21:45;;;;;;;0.10;0.00;;;21.30;99.90;;;;;;5003862;28;20450;-85
2022/08/04 05:24:13;;;;;;;0.10;0.10;;;21.30;99.90;;;;;;5007049;28;20987;-84
2022/08/04 05:26:45;;;;;;;0.10;0.00;;;21.40;99.90;;;;;;5009761;28;20431;-84
2022/08/04 05:29:20;;;;;;;0.10;0.10;;;21.50;99.90;;;;;;5004251;28;20453;-84
2022/08/04 05:31:51;;;;;;;0.10;0.00;;;21.60;99.90;;;;;;5014055;28;20516;-85
2022/08/04 05:34:24;;;;;;;0.10;0.00;;;21.60;99.90;;;;;;5011985;28;20492;-85
2022/08/04 05:36:58;;;;;;;0.10;0.00;;;21.60;99.90;;;;;;5024171;28;20549;-86
2022/08/04 05:39:26;;;;;;;0.10;0.00;;;21.60;99.90;;;;;;5012230;28;20533;-86
2022/08/04 05:41:57;;;;;;;0.10;0.10;;;21.70;99.90;;;;;;5030654;28;20501;-86
2022/08/04 05:44:24;;;;;;;0.10;0.00;;;21.70;99.90;;;;;;5018318;28;20961;-85
2022/08/04 05:46:54;;;;;;;0.10;0.00;;;21.70;99.90;;;;;;5015041;28;20536;-86
2022/08/04 05:49:22;;;;;;;0.10;0.00;;;21.80;99.90;;;;;;5021479;28;20446;-87
2022/08/04 05:51:48;;;;;;;0.10;0.10;;;21.90;99.90;;;;;;5019680;28;20438;-86
2022/08/04 05:54:15;;;;;;;0.10;0.00;;;22.00;99.90;;;;;;5022645;28;20442;-86
2022/08/04 05:56:41;;;;;;;0.10;0.00;;;22.10;99.90;;;;;;5015423;28;20636;-88
2022/08/04 05:59:09;;;;;;;0.10;0.00;;;22.30;99.90;;;;;;5019670;28;20529;-86
2022/08/04 06:01:37;;;;;;;0.10;0.00;;;22.30;99.90;;;;;;5014225;28;20439;-87
2022/08/04 06:04:04;;;;;;;0.10;0.00;;;22.30;99.90;;;;;;5022653;28;20539;-86
2022/08/04 06:06:30;;;;;;;0.10;0.00;;;22.40;99.90;;;;;;5022306;28;20450;-85
2022/08/04 06:08:56;;;;;;;0.10;0.00;;;22.50;99.90;;;;;;5020663;28;20477;-86
2022/08/04 06:11:23;;;;;;;0.10;0.10;;;22.60;99.90;;;;;;5002632;28;20438;-86
2022/08/04 06:13:57;;;;;;;0.10;0.10;;;22.80;99.90;;;;;;5017613;28;20188;-86
2022/08/04 06:16:25;;;;;;;0.10;0.00;;;22.90;99.90;;;;;;5017076;28;20961;-86
2022/08/04 06:18:52;;;;;;;0.10;0.10;;;23.00;99.90;;;;;;5022742;28;20585;-86
2022/08/04 06:21:22;;;;;;;0.10;0.00;;;23.00;99.90;;;;;;5015105;28;21254;-85
2022/08/04 06:23:49;;;;;;;0.10;0.00;;;23.10;99.90;;;;;;5022692;28;20441;-84
2022/08/04 06:26:18;;;;;;;0.10;0.00;;;23.20;99.90;;;;;;5010536;28;21087;-86
2022/08/04 06:28:49;;;;;;;0.10;0.00;;;23.20;99.90;;;;;;5017330;28;20967;-85
2022/08/04 06:31:30;;;;;;;0.10;0.00;;;23.40;99.90;;;;;;5012997;28;20581;-85
2022/08/04 06:34:03;;;;;;;0.10;0.00;;;23.50;99.90;;;;;;5022420;28;20442;-88
2022/08/04 06:36:35;;;;;;;0.10;0.00;;;23.50;99.90;;;;;;5003300;28;20446;-88
2022/08/04 06:39:01;;;;;;;0.10;0.10;;;23.70;99.90;;;;;;5022800;28;20442;-89
2022/08/04 06:41:31;;;;;;;0.10;0.00;;;23.70;99.90;;;;;;5013681;28;20434;-89
2022/08/04 06:44:03;;;;;;;0.10;0.00;;;23.80;99.90;;;;;;5014127;28;20545;-88
2022/08/04 06:46:30;;;;;;;0.10;0.00;;;23.90;99.90;;;;;;5015460;28;20439;-89
2022/08/04 06:48:58;;;;;;;0.10;0.00;;;24.10;99.90;;;;;;5028322;28;20452;-88
2022/08/04 06:51:24;;;;;;;0.10;0.00;;;24.20;99.90;;;;;;4991024;28;20481;-90
2022/08/04 06:53:50;;;;;;;0.10;0.00;;;24.30;99.90;;;;;;5020010;28;20449;-90
2022/08/04 06:56:17;;;;;;;0.10;0.00;;;24.40;99.90;;;;;;5028767;28;20525;-89
2022/08/04 06:58:45;;;;;;;0.10;0.00;;;24.40;99.90;;;;;;5030156;28;20537;-88
2022/08/04 07:01:13;;;;;;;0.10;0.00;;;24.50;99.90;;;;;;5015900;28;20452;-91
2022/08/04 07:03:39;;;;;;;0.10;0.00;;;24.60;99.90;;;;;;5024449;28;20446;-89
2022/08/04 07:06:04;;;;;;;0.10;0.00;;;24.70;99.90;;;;;;5021499;28;20443;-89
2022/08/04 07:08:30;;;;;;;0.10;0.00;;;24.70;99.90;;;;;;5017040;28;20233;-89
2022/08/04 07:10:58;;;;;;;0.10;0.00;;;24.70;99.90;;;;;;5021059;28;20195;-89
2022/08/04 07:13:26;;;;;;;0.10;0.00;;;24.80;99.90;;;;;;5015660;28;21000;-89
2022/08/04 07:15:53;;;;;;;0.10;0.00;;;24.90;99.90;;;;;;5026728;28;21282;-89
2022/08/04 07:18:18;;;;;;;0.10;0.00;;;25.00;99.90;;;;;;5024671;28;20493;-89
2022/08/04 07:20:45;;;;;;;0.10;0.00;;;25.10;99.90;;;;;;5015455;28;20447;-89
2022/08/04 07:23:16;;;;;;;0.10;0.00;;;25.20;99.90;;;;;;5010169;28;20200;-89
2022/08/04 07:25:43;;;;;;;0.10;0.00;;;25.20;99.90;;;;;;5016669;28;20469;-88
2022/08/04 07:28:09;;;;;;;0.10;0.00;;;25.20;99.90;;;;;;5018121;28;20574;-90
2022/08/04 07:30:35;;;;;;;0.10;0.00;;;25.40;99.90;;;;;;5012474;28;20524;-89
2022/08/04 07:33:02;;;;;;;0.10;0.00;;;25.50;99.90;;;;;;5029774;28;20187;-88
2022/08/04 07:35:28;;;;;;;0.10;0.00;;;25.60;99.90;;;;;;5003779;28;20446;-88
2022/08/04 07:37:54;;;;;;;0.10;0.00;;;25.70;99.90;;;;;;5024613;28;20482;-90
2022/08/04 07:40:19;;;;;;;0.10;0.00;;;25.80;99.90;;;;;;5032074;28;21031;-89
2022/08/04 07:42:45;;;;;;;0.10;0.00;;;25.90;99.90;;;;;;5029580;28;20200;-88
2022/08/04 07:45:16;;;;;;;0.10;0.00;;;25.90;99.90;;;;;;5011399;28;20660;-91
2022/08/04 07:47:42;;;;;;;0.10;0.00;;;26.10;99.90;;;;;;5020399;28;20195;-89
2022/08/04 07:50:11;;;;;;;0.10;0.00;;;26.10;99.90;;;;;;5023985;28;20605;-86
2022/08/04 07:52:37;;;;;;;0.10;0.00;;;26.30;99.90;;;;;;5020853;28;20446;-87
2022/08/04 07:55:03;;;;;;;0.10;0.00;;;26.30;99.90;;;;;;5007529;28;20495;-86
2022/08/04 07:57:29;;;;;;;0.10;0.00;;;26.50;99.90;;;;;;5024851;28;20216;-86
2022/08/04 07:59:55;;;;;;;0.10;0.00;;;26.60;99.90;;;;;;5013202;28;20430;-87
2022/08/04 08:02:22;;;;;;;0.10;0.00;;;26.70;99.90;;;;;;5016102;28;20753;-89
2022/08/04 08:04:48;;;;;;;0.10;0.00;;;27.00;99.90;;;;;;5016522;28;20644;-87
2022/08/04 08:07:13;;;;;;;0.10;0.00;;;27.00;99.90;;;;;;5017969;28;20991;-87
2022/08/04 08:09:39;;;;;;;0.10;0.00;;;27.30;99.90;;;;;;5022964;28;20446;-87
2022/08/04 08:12:06;;;;;;;0.10;0.00;;;27.40;99.90;;;;;;5013764;28;20181;-85
2022/08/04 08:14:34;;;;;;;0.10;0.00;;;27.40;99.90;;;;;;5049120;28;20191;-86
2022/08/04 08:17:03;;;;;;;0.10;0.00;;;27.30;99.90;;;;;;5011886;28;20557;-85
2022/08/04 08:19:29;;;;;;;0.10;0.00;;;27.50;99.90;;;;;;5029061;28;20437;-86
2022/08/04 08:21:55;;;;;;;0.10;0.00;;;27.70;99.90;;;;;;5016011;28;20447;-87
2022/08/04 08:24:21;;;;;;;0.10;0.00;;;28.00;99.90;;;;;;5017649;28;20477;-89
2022/08/04 08:26:46;;;;;;;0.10;0.00;;;28.20;99.90;;;;;;5008136;28;20719;-88
2022/08/04 08:29:12;;;;;;;0.10;0.00;;;28.50;99.90;;;;;;5012223;28;20703;-87
2022/08/04 08:31:38;;;;;;;0.10;0.00;;;28.60;99.90;;;;;;5008695;28;20198;-88
2022/08/04 08:34:04;;;;;;;0.10;0.00;;;28.60;99.90;;;;;;5022083;28;20441;-88
2022/08/04 08:36:47;;;;;;;0.10;0.00;;;28.80;99.90;;;;;;5052935;28;20167;-88
2022/08/04 08:39:22;;;;;;;0.10;0.00;;;29.10;99.90;;;;;;5043520;28;20462;-89
2022/08/04 08:42:35;;;;;;;0.10;0.00;;;29.20;99.90;;;;;;5023981;28;20565;-90
2022/08/04 08:45:32;;;;;;;0.10;0.00;;;29.40;99.90;;;;;;5016983;28;20457;-88
2022/08/04 08:48:35;;;;;;;0.10;0.00;;;29.50;99.90;;;;;;5024139;28;20883;-86
2022/08/04 08:51:23;;;;;;;0.10;0.00;;;29.50;99.90;;;;;;5022034;28;20526;-88
2022/08/04 08:54:08;;;;;;;0.10;0.00;;;29.70;99.90;;;;;;5012342;28;20419;-87
2022/08/04 08:57:18;;;;;;;0.10;0.00;;;30.00;99.90;;;;;;5025068;28;20437;-87
2022/08/04 09:00:22;;;;;;;0.10;0.00;;;30.10;99.90;;;;;;4924889;29;20479;-86
2022/08/04 09:03:09;;;;;;;0.10;0.00;;;30.10;99.90;;;;;;4913381;29;20451;-85
2022/08/04 09:06:15;;;;;;;0.10;0.00;;;30.00;99.90;;;;;;5013775;28;20457;-86
2022/08/04 09:09:14;;;;;;;0.10;0.00;;;30.10;99.90;;;;;;5037463;28;20478;-84
2022/08/04 09:12:04;;;;;;;0.10;0.00;;;30.60;99.90;;;;;;5031059;28;20472;-84
2022/08/04 09:15:11;;;;;;;0.10;0.00;;;30.90;99.90;;;;;;5029292;28;20442;-85
2022/08/04 09:17:56;;;;;;;0.10;0.00;;;30.90;99.90;;;;;;4978130;28;20512;-82
2022/08/04 09:20:39;;;;;;;0.10;0.00;;;31.00;99.90;;;;;;5025364;28;20441;-83
2022/08/04 09:23:38;;;;;;;0.10;0.00;;;31.20;99.90;;;;;;5028391;28;20438;-83
2022/08/04 09:26:11;;;;;;;0.10;0.00;;;31.40;99.90;;;;;;4982881;28;20450;-83
2022/08/04 09:28:47;;;;;;;0.10;0.00;;;31.70;99.90;;;;;;5029903;28;20441;-83
2022/08/04 09:31:16;;;;;;;0.10;0.00;;;32.00;99.90;;;;;;5024123;28;20538;-82
2022/08/04 09:33:54;;;;;;;0.10;0.00;;;31.70;99.90;;;;;;5000009;28;20445;-83
2022/08/04 09:36:46;;;;;;;0.10;0.00;;;31.60;99.90;;;;;;5027603;28;20596;-82
2022/08/04 09:39:55;;;;;;;0.10;0.00;;;31.80;99.90;;;;;;5015225;28;20473;-84
2022/08/04 09:42:40;;;;;;;0.10;0.00;;;31.80;99.90;;;;;;5010775;28;20478;-84
2022/08/04 09:45:21;;;;;;;0.10;0.00;;;31.80;99.90;;;;;;5012740;28;20431;-84
2022/08/04 09:47:57;;;;;;;0.10;0.00;;;32.00;99.90;;;;;;5011646;28;20446;-85
2022/08/04 09:50:44;;;;;;;0.10;0.00;;;32.10;99.90;;;;;;5010757;28;20447;-83
2022/08/04 09:53:40;;;;;;;0.10;0.00;;;31.80;99.90;;;;;;5019734;28;20517;-85
2022/08/04 09:56:23;;;;;;;0.10;0.00;;;31.60;99.90;;;;;;5017069;28;20453;-85
2022/08/04 09:59:18;;;;;;;0.10;0.00;;;31.50;99.90;;;;;;5022271;28;20487;-85
2022/08/04 10:01:47;;;;;;;0.10;0.00;;;31.30;99.90;;;;;;5016441;28;20442;-86
2022/08/04 10:04:14;;;;;;;0.10;0.00;;;31.80;99.90;;;;;;5042911;28;20476;-85
2022/08/04 10:07:08;;;;;;;0.10;0.00;;;32.20;99.90;;;;;;5027912;28;20930;-85
2022/08/04 10:09:45;;;;;;;0.10;0.00;;;32.40;99.90;;;;;;5023910;28;20443;-85
2022/08/04 10:12:23;;;;;;;0.10;0.00;;;32.20;99.90;;;;;;5019591;28;20449;-85
2022/08/04 10:15:12;;;;;;;0.10;0.00;;;32.40;99.90;;;;;;5023802;28;20438;-86
2022/08/04 10:18:05;;;;;;;0.10;0.00;;;32.10;99.90;;;;;;5009823;28;20986;-87
2022/08/04 10:21:04;;;;;;;0.10;0.00;;;32.00;99.90;;;;;;5019696;28;20518;-86
2022/08/04 10:24:00;;;;;;;0.10;0.00;;;32.30;99.90;;;;;;5008409;28;20952;-86
2022/08/04 10:27:07;;;;;;;0.10;0.00;;;32.40;99.90;;;;;;5018291;28;20505;-89
2022/08/04 10:29:46;;;;;;;0.10;0.00;;;32.00;99.90;;;;;;5022439;28;20549;-90
2022/08/04 10:32:26;;;;;;;0.10;0.00;;;32.00;99.90;;;;;;5027893;28;20461;-90
2022/08/04 10:35:16;;;;;;;0.10;0.00;;;31.60;99.50;;;;;;5015804;28;20451;-89
2022/08/04 10:38:09;;;;;;;0.10;0.00;;;31.50;99.90;;;;;;5011359;28;20553;-88
2022/08/04 10:40:47;;;;;;;0.10;0.00;;;31.30;99.50;;;;;;5011778;28;21429;-87
2022/08/04 10:43:23;;;;;;;0.10;0.00;;;31.20;99.90;;;;;;5019331;28;20457;-89
2022/08/04 10:46:09;;;;;;;0.10;0.00;;;31.40;99.90;;;;;;5022246;28;20545;-87
2022/08/04 10:48:43;;;;;;;0.10;0.00;;;31.90;99.90;;;;;;5014477;28;20508;-89
2022/08/04 10:51:20;;;;;;;0.10;0.00;;;32.40;99.90;;;;;;5015628;28;20492;-88
2022/08/04 10:53:54;;;;;;;0.10;0.00;;;32.40;99.90;;;;;;5026699;28;20533;-87
2022/08/04 10:56:31;;;;;;;0.10;0.00;;;32.20;99.90;;;;;;5022534;28;20537;-94
2022/08/04 10:59:02;;;;;;;0.10;0.00;;;32.30;99.90;;;;;;5002611;28;20482;-89
2022/08/04 11:01:40;;;;;;;0.10;0.00;;;32.70;99.90;;;;;;5012329;28;20961;-88
2022/08/04 11:04:44;;;;;;;0.10;0.00;;;32.80;99.90;;;;;;5015818;28;20452;-90
2022/08/04 11:07:12;;;;;;;0.10;0.00;;;33.40;99.90;;;;;;5016144;28;20477;-90
2022/08/04 11:09:39;;;;;;;0.10;0.00;;;34.20;99.80;;;;;;5020381;28;20453;-84
2022/08/04 11:12:11;;;;;;;0.10;0.00;;;34.20;99.90;;;;;;5014337;28;20434;-85
2022/08/04 11:14:45;;;;;;;0.10;0.00;;;34.70;98.70;;;;;;5016388;28;20462;-84
2022/08/04 11:17:19;;;;;;;0.10;0.00;;;34.50;97.90;;;;;;5015509;28;20514;-85
2022/08/04 11:20:00;;;;;;;0.10;0.00;;;34.40;97.80;;;;;;5019079;28;20541;-88
2022/08/04 11:22:27;;;;;;;0.10;0.00;;;34.70;96.60;;;;;;5007213;28;20560;-88
2022/08/04 11:24:58;;;;;;;0.10;0.00;;;34.80;94.90;;;;;;4975244;28;20544;-90
2022/08/04 11:27:51;;;;;;;0.00;0.00;;;34.60;95.80;;;;;;4981413;28;20448;-90
2022/08/04 11:30:18;;;;;;;0.10;0.00;;;33.80;97.00;;;;;;4949486;28;21040;-88
2022/08/04 11:32:54;;;;;;;0.10;0.00;;;33.60;90.50;;;;;;4972261;28;20445;-87
2022/08/04 11:35:56;;;;;;;0.10;0.00;;;33.70;90.00;;;;;;4983781;28;20463;-88
2022/08/04 11:38:28;;;;;;;0.10;0.00;;;33.80;91.00;;;;;;4953389;28;20488;-87
2022/08/04 11:40:58;;;;;;;0.10;0.00;;;34.30;90.40;;;;;;4974292;28;20452;-87
2022/08/04 11:43:35;;;;;;;0.10;0.00;;;34.10;87.50;;;;;;4986529;28;20528;-87
2022/08/04 11:46:07;;;;;;;0.10;0.00;;;33.70;90.20;;;;;;4982326;28;20452;-87
2022/08/04 11:48:39;;;;;;;0.10;0.00;;;33.70;86.60;;;;;;4977518;28;20472;-88
2022/08/04 11:51:06;;;;;;;0.10;0.00;;;33.70;87.60;;;;;;4978234;28;20441;-88
2022/08/04 11:53:36;;;;;;;0.10;0.00;;;34.20;86.50;;;;;;4981522;28;20454;-87
2022/08/04 11:56:06;;;;;;;0.10;0.00;;;34.10;84.80;;;;;;4979945;28;20465;-88
2022/08/04 11:58:31;;;;;;;0.10;0.00;;;33.90;87.10;;;;;;4976831;28;20867;-86
2022/08/04 12:01:17;;;;;;;0.10;0.00;;;33.50;89.90;;;;;;4979053;28;20445;-87
2022/08/04 12:04:04;;;;;;;0.10;0.00;;;33.30;90.70;;;;;;4989087;28;20649;-87
2022/08/04 12:06:48;;;;;;;0.10;0.00;;;33.10;91.10;;;;;;4976631;28;20508;-87
2022/08/04 12:09:21;;;;;;;0.10;0.00;;;32.70;92.40;;;;;;4996053;28;20814;-89
2022/08/04 12:12:05;;;;;;;0.10;0.00;;;33.10;92.70;;;;;;5024906;28;20592;-89
2022/08/04 12:14:56;;;;;;;0.10;0.00;;;34.00;92.70;;;;;;5021247;28;20550;-90
2022/08/04 12:17:29;;;;;;;0.10;0.00;;;34.60;92.00;;;;;;4975471;28;20479;-88
2022/08/04 12:20:01;;;;;;;0.10;0.00;;;33.90;92.00;;;;;;5018404;28;21132;-89
2022/08/04 12:22:31;;;;;;;0.10;0.00;;;33.30;92.60;;;;;;5028479;28;20500;-86
2022/08/04 12:25:04;;;;;;;0.10;0.00;;;32.90;93.10;;;;;;5006421;28;20454;-91
2022/08/04 12:27:53;;;;;;;0.10;0.00;;;32.80;93.40;;;;;;5023949;28;20446;-87
2022/08/04 12:30:19;;;;;;;0.10;0.00;;;34.00;92.50;;;;;;5011334;28;20451;-89
2022/08/04 12:33:15;;;;;;;0.10;0.00;;;34.40;94.10;;;;;;5000293;28;20449;-90
2022/08/04 12:36:03;;;;;;;0.10;0.00;;;35.20;93.00;;;;;;5008477;28;20204;-89
2022/08/04 12:38:32;;;;;;;0.10;0.00;;;35.60;92.20;;;;;;5023488;28;20491;-89
2022/08/04 12:41:02;;;;;;;0.10;0.00;;;35.30;92.50;;;;;;4998614;28;20436;-89
2022/08/04 12:43:41;;;;;;;0.10;0.00;;;35.40;92.30;;;;;;5012998;28;21441;-89
2022/08/04 12:46:09;;;;;;;0.10;0.00;;;34.80;91.70;;;;;;5024766;28;20852;-90
2022/08/04 12:48:37;;;;;;;0.10;0.00;;;34.40;92.10;;;;;;5007784;28;20447;-91
2022/08/04 12:51:06;;;;;;;0.10;0.00;;;34.00;92.60;;;;;;5003168;28;20915;-88
2022/08/04 12:53:36;;;;;;;0.10;0.00;;;33.60;92.70;;;;;;5000899;28;20455;-88
2022/08/04 12:56:02;;;;;;;0.10;0.00;;;33.80;93.30;;;;;;5012211;28;20438;-89
2022/08/04 12:58:32;;;;;;;0.10;0.00;;;34.60;92.30;;;;;;5011667;28;20502;-89
2022/08/04 13:01:10;;;;;;;0.10;0.00;;;34.90;93.20;;;;;;5015996;28;20482;-88
2022/08/04 13:03:44;;;;;;;0.00;0.00;;;35.20;94.10;;;;;;5014232;28;20454;-87
2022/08/04 13:06:12;;;;;;;0.03;0.00;;;35.20;92.90;;;;;;5022345;28;20961;-88
2022/08/04 13:08:42;;;;;;;0.00;0.00;;;35.60;93.60;;;;;;5015038;28;21002;-89
2022/08/04 13:11:09;;;;;;;0.10;0.00;;;36.10;91.40;;;;;;5013198;28;20443;-88
2022/08/04 13:13:37;;;;;;;0.10;0.00;;;36.40;90.70;;;;;;5024013;28;20446;-87
2022/08/04 13:16:07;;;;;;;0.10;0.00;;;36.60;87.60;;;;;;5018032;28;20435;-88
2022/08/04 13:18:49;;;;;;;0.10;0.00;;;36.30;91.80;;;;;;4998804;28;20489;-87
2022/08/04 13:21:28;;;;;;;0.10;0.00;;;36.60;87.60;;;;;;5014067;28;20994;-87
2022/08/04 13:24:02;;;;;;;0.10;0.00;;;36.20;89.20;;;;;;5017203;28;20475;-87
2022/08/04 13:26:28;;;;;;;0.10;0.00;;;36.70;90.00;;;;;;5014945;28;20507;-87
2022/08/04 13:28:59;;;;;;;0.10;0.00;;;36.50;92.30;;;;;;5016929;28;20488;-88
2022/08/04 13:31:27;;;;;;;0.10;0.00;;;36.80;91.50;;;;;;5007201;28;20459;-88
2022/08/04 13:34:01;;;;;;;0.10;0.00;;;36.90;90.50;;;;;;5013139;28;20446;-88
2022/08/04 13:36:28;;;;;;;0.10;0.00;;;36.40;88.80;;;;;;4997809;28;20455;-89
2022/08/04 13:38:58;;;;;;;0.10;0.00;;;35.90;91.20;;;;;;5015052;28;20573;-88
2022/08/04 13:41:26;;;;;;;0.10;0.00;;;35.90;88.50;;;;;;5016264;28;20549;-88
2022/08/04 13:43:57;;;;;;;0.10;0.00;;;36.00;88.80;;;;;;5012642;28;20509;-89